sensor_id;sensor_type;location;lat;lon;timestamp;pressure;altitude;pressure_sealevel;temperature;humidity
47366;BME280;33105;47.964;7.982;2022-09-09T00:06:17;96420.09;;;14.13;74.43
47366;BME280;33105;47.964;7.982;2022-09-09T00:09:25;96424.91;;;14.02;74.76
47366;BME280;33105;47.964;7.982;2022-09-09T00:12:54;96419.94;;;14.04;74.74
47366;BME280;33105;47.964;7.982;2022-09-09T00:22:19;96418.94;;;13.95;75.50
47366;BME280;33105;47.964;7.982;2022-09-09T00:25:32;96421.94;;;13.99;75.26
47366;BME280;33105;47.964;7.982;2022-09-09T00:28:44;96430.06;;;14.09;75.31
47366;BME280;33105;47.964;7.982;2022-09-09T00:31:48;96421.75;;;14.14;74.37
47366;BME280;33105;47.964;7.982;2022-09-09T00:34:57;96419.75;;;14.19;74.59
47366;BME280;33105;47.964;7.982;2022-09-09T00:38:16;96425.84;;;13.92;74.84
47366;BME280;33105;47.964;7.982;2022-09-09T00:41:21;96430.56;;;13.87;76.28
47366;BME280;33105;47.964;7.982;2022-09-09T00:51:00;96430.81;;;14.14;75.53
47366;BME280;33105;47.964;7.982;2022-09-09T00:57:41;96442.91;;;14.13;75.82
47366;BME280;33105;47.964;7.982;2022-09-09T01:00:47;96432.91;;;14.22;75.63
47366;BME280;33105;47.964;7.982;2022-09-09T01:03:54;96429.28;;;14.27;74.68
47366;BME280;33105;47.964;7.982;2022-09-09T01:07:04;96420.19;;;14.32;74.42
47366;BME280;33105;47.964;7.982;2022-09-09T01:10:21;96424.63;;;14.27;75.01
47366;BME280;33105;47.964;7.982;2022-09-09T01:13:29;96411.53;;;14.43;74.27
47366;BME280;33105;47.964;7.982;2022-09-09T01:16:32;96417.94;;;14.34;74.52
47366;BME280;33105;47.964;7.982;2022-09-09T01:19:49;96413.69;;;14.46;73.77
47366;BME280;33105;47.964;7.982;2022-09-09T01:26:34;96415.69;;;14.36;74.38
47366;BME280;33105;47.964;7.982;2022-09-09T01:29:41;96417.47;;;14.26;75.71
47366;BME280;33105;47.964;7.982;2022-09-09T01:32:48;96403.69;;;14.32;75.04
47366;BME280;33105;47.964;7.982;2022-09-09T01:36:47;96409.63;;;14.39;75.47
47366;BME280;33105;47.964;7.982;2022-09-09T01:39:29;96406.50;;;14.50;75.00
47366;BME280;33105;47.964;7.982;2022-09-09T01:42:35;96404.63;;;14.46;74.05
47366;BME280;33105;47.964;7.982;2022-09-09T01:45:39;96419.06;;;14.56;74.67
47366;BME280;33105;47.964;7.982;2022-09-09T01:48:43;96421.28;;;14.54;75.40
47366;BME280;33105;47.964;7.982;2022-09-09T01:51:49;96433.75;;;14.47;76.10
47366;BME280;33105;47.964;7.982;2022-09-09T01:54:52;96428.03;;;14.62;75.79
47366;BME280;33105;47.964;7.982;2022-09-09T02:01:22;96433.47;;;14.67;75.95
47366;BME280;33105;47.964;7.982;2022-09-09T02:04:42;96441.13;;;14.70;76.76
47366;BME280;33105;47.964;7.982;2022-09-09T02:07:51;96436.16;;;14.72;76.58
47366;BME280;33105;47.964;7.982;2022-09-09T02:11:21;96446.75;;;14.60;78.36
47366;BME280;33105;47.964;7.982;2022-09-09T02:14:40;96445.22;;;14.73;76.94
47366;BME280;33105;47.964;7.982;2022-09-09T02:17:46;96441.25;;;14.60;78.66
47366;BME280;33105;47.964;7.982;2022-09-09T02:20:51;96432.34;;;14.68;78.86
47366;BME280;33105;47.964;7.982;2022-09-09T02:23:54;96429.97;;;14.61;77.92
47366;BME280;33105;47.964;7.982;2022-09-09T02:26:58;96439.44;;;14.74;78.54
47366;BME280;33105;47.964;7.982;2022-09-09T02:30:03;96442.13;;;14.79;79.34
47366;BME280;33105;47.964;7.982;2022-09-09T02:33:16;96427.31;;;14.75;79.16
47366;BME280;33105;47.964;7.982;2022-09-09T02:36:23;96434.38;;;14.81;79.66
47366;BME280;33105;47.964;7.982;2022-09-09T02:39:25;96429.84;;;14.72;79.06
47366;BME280;33105;47.964;7.982;2022-09-09T02:42:27;96436.22;;;14.67;80.20
47366;BME280;33105;47.964;7.982;2022-09-09T02:45:43;96432.94;;;14.65;78.90
47366;BME280;33105;47.964;7.982;2022-09-09T02:49:06;96433.63;;;14.57;79.49
47366;BME280;33105;47.964;7.982;2022-09-09T02:52:14;96432.88;;;14.70;80.40
47366;BME280;33105;47.964;7.982;2022-09-09T02:55:28;96433.75;;;14.66;79.59
47366;BME280;33105;47.964;7.982;2022-09-09T02:58:34;96436.97;;;14.73;79.76
47366;BME280;33105;47.964;7.982;2022-09-09T03:01:39;96440.00;;;14.71;79.89
47366;BME280;33105;47.964;7.982;2022-09-09T03:04:41;96441.72;;;14.67;80.06
47366;BME280;33105;47.964;7.982;2022-09-09T03:07:46;96429.53;;;14.73;79.74
47366;BME280;33105;47.964;7.982;2022-09-09T03:10:48;96434.81;;;14.70;80.10
47366;BME280;33105;47.964;7.982;2022-09-09T03:13:50;96421.34;;;14.68;79.73
47366;BME280;33105;47.964;7.982;2022-09-09T03:16:54;96423.06;;;14.64;78.84
47366;BME280;33105;47.964;7.982;2022-09-09T03:19:58;96422.88;;;14.79;78.80
47366;BME280;33105;47.964;7.982;2022-09-09T03:23:00;96423.22;;;14.91;78.08
47366;BME280;33105;47.964;7.982;2022-09-09T03:26:01;96425.97;;;14.73;79.57
47366;BME280;33105;47.964;7.982;2022-09-09T03:29:12;96418.69;;;14.82;79.77
47366;BME280;33105;47.964;7.982;2022-09-09T03:32:14;96426.50;;;14.93;79.33
47366;BME280;33105;47.964;7.982;2022-09-09T03:35:18;96427.53;;;14.97;79.13
47366;BME280;33105;47.964;7.982;2022-09-09T03:38:20;96435.03;;;14.92;79.30
47366;BME280;33105;47.964;7.982;2022-09-09T03:41:22;96435.94;;;14.87;79.93
47366;BME280;33105;47.964;7.982;2022-09-09T03:44:24;96422.34;;;14.77;81.28
47366;BME280;33105;47.964;7.982;2022-09-09T03:47:26;96425.22;;;14.67;79.60
47366;BME280;33105;47.964;7.982;2022-09-09T03:50:32;96426.25;;;14.52;81.21
47366;BME280;33105;47.964;7.982;2022-09-09T03:53:34;96431.94;;;14.80;79.97
47366;BME280;33105;47.964;7.982;2022-09-09T03:56:36;96427.16;;;14.85;79.71
47366;BME280;33105;47.964;7.982;2022-09-09T03:59:38;96427.47;;;14.84;80.21
47366;BME280;33105;47.964;7.982;2022-09-09T04:02:39;96414.22;;;14.86;79.63
47366;BME280;33105;47.964;7.982;2022-09-09T04:05:40;96409.84;;;14.85;79.43
47366;BME280;33105;47.964;7.982;2022-09-09T04:08:43;96420.69;;;14.76;80.15
47366;BME280;33105;47.964;7.982;2022-09-09T04:11:45;96419.06;;;14.75;80.41
47366;BME280;33105;47.964;7.982;2022-09-09T04:14:47;96416.84;;;14.35;80.52
47366;BME280;33105;47.964;7.982;2022-09-09T04:17:48;96421.34;;;14.68;80.33
47366;BME280;33105;47.964;7.982;2022-09-09T04:20:50;96420.94;;;14.80;80.10
47366;BME280;33105;47.964;7.982;2022-09-09T04:23:54;96428.38;;;14.79;80.66
47366;BME280;33105;47.964;7.982;2022-09-09T04:26:56;96428.66;;;14.78;80.23
47366;BME280;33105;47.964;7.982;2022-09-09T04:29:57;96429.91;;;14.85;80.38
47366;BME280;33105;47.964;7.982;2022-09-09T04:33:01;96432.97;;;14.84;80.53
47366;BME280;33105;47.964;7.982;2022-09-09T04:36:03;96430.94;;;14.52;77.89
47366;BME280;33105;47.964;7.982;2022-09-09T04:39:04;96439.19;;;14.89;78.13
47366;BME280;33105;47.964;7.982;2022-09-09T04:42:06;96431.56;;;15.05;77.81
47366;BME280;33105;47.964;7.982;2022-09-09T04:45:08;96436.69;;;14.93;77.50
47366;BME280;33105;47.964;7.982;2022-09-09T04:48:11;96438.75;;;15.01;76.60
47366;BME280;33105;47.964;7.982;2022-09-09T04:51:13;96434.22;;;14.91;76.73
47366;BME280;33105;47.964;7.982;2022-09-09T04:54:15;96435.84;;;15.11;77.60
47366;BME280;33105;47.964;7.982;2022-09-09T04:57:18;96436.38;;;15.13;77.25
47366;BME280;33105;47.964;7.982;2022-09-09T05:00:20;96425.75;;;15.07;78.50
47366;BME280;33105;47.964;7.982;2022-09-09T05:03:22;96422.09;;;14.74;78.30
47366;BME280;33105;47.964;7.982;2022-09-09T05:06:23;96419.72;;;15.05;78.56
47366;BME280;33105;47.964;7.982;2022-09-09T05:09:31;96423.53;;;15.09;78.62
47366;BME280;33105;47.964;7.982;2022-09-09T05:12:32;96426.06;;;15.05;78.83
47366;BME280;33105;47.964;7.982;2022-09-09T05:15:33;96428.50;;;15.07;78.67
47366;BME280;33105;47.964;7.982;2022-09-09T05:18:34;96433.50;;;15.05;78.50
47366;BME280;33105;47.964;7.982;2022-09-09T05:21:35;96435.53;;;15.13;77.67
47366;BME280;33105;47.964;7.982;2022-09-09T05:24:37;96436.66;;;15.12;78.66
47366;BME280;33105;47.964;7.982;2022-09-09T05:27:39;96442.78;;;15.09;78.30
47366;BME280;33105;47.964;7.982;2022-09-09T05:30:40;96443.50;;;15.14;78.23
47366;BME280;33105;47.964;7.982;2022-09-09T05:33:43;96437.19;;;15.14;79.04
47366;BME280;33105;47.964;7.982;2022-09-09T05:36:47;96433.91;;;15.12;78.89
47366;BME280;33105;47.964;7.982;2022-09-09T05:39:49;96429.63;;;15.06;78.89
47366;BME280;33105;47.964;7.982;2022-09-09T05:42:51;96427.28;;;15.13;79.63
47366;BME280;33105;47.964;7.982;2022-09-09T05:49:04;96433.56;;;14.81;80.24
47366;BME280;33105;47.964;7.982;2022-09-09T05:52:07;96437.19;;;15.14;79.58
47366;BME280;33105;47.964;7.982;2022-09-09T05:55:09;96446.63;;;15.26;79.19
47366;BME280;33105;47.964;7.982;2022-09-09T05:58:10;96442.25;;;15.25;79.74
47366;BME280;33105;47.964;7.982;2022-09-09T06:01:14;96450.00;;;15.05;79.60
47366;BME280;33105;47.964;7.982;2022-09-09T06:04:16;96458.25;;;15.05;79.35
47366;BME280;33105;47.964;7.982;2022-09-09T06:07:18;96456.00;;;14.88;77.73
47366;BME280;33105;47.964;7.982;2022-09-09T06:10:20;96444.19;;;15.25;78.65
47366;BME280;33105;47.964;7.982;2022-09-09T06:13:21;96455.47;;;15.23;74.97
47366;BME280;33105;47.964;7.982;2022-09-09T06:16:24;96452.91;;;15.46;77.25
47366;BME280;33105;47.964;7.982;2022-09-09T06:19:26;96455.00;;;15.54;76.59
47366;BME280;33105;47.964;7.982;2022-09-09T06:22:30;96463.38;;;15.30;77.98
47366;BME280;33105;47.964;7.982;2022-09-09T06:25:31;96457.38;;;15.60;77.66
47366;BME280;33105;47.964;7.982;2022-09-09T06:28:35;96456.41;;;15.70;76.96
47366;BME280;33105;47.964;7.982;2022-09-09T06:31:37;96451.41;;;15.86;76.88
47366;BME280;33105;47.964;7.982;2022-09-09T06:34:45;96458.41;;;15.97;74.95
47366;BME280;33105;47.964;7.982;2022-09-09T06:37:46;96448.88;;;15.89;75.96
47366;BME280;33105;47.964;7.982;2022-09-09T06:40:57;96450.66;;;15.67;72.98
47366;BME280;33105;47.964;7.982;2022-09-09T06:43:59;96439.72;;;15.94;74.92
47366;BME280;33105;47.964;7.982;2022-09-09T06:47:15;96450.22;;;15.59;73.19
47366;BME280;33105;47.964;7.982;2022-09-09T06:50:17;96458.41;;;15.97;73.72
47366;BME280;33105;47.964;7.982;2022-09-09T06:53:19;96461.56;;;16.04;73.77
47366;BME280;33105;47.964;7.982;2022-09-09T06:56:30;96467.31;;;16.08;73.32
47366;BME280;33105;47.964;7.982;2022-09-09T06:59:32;96467.50;;;16.11;73.88
47366;BME280;33105;47.964;7.982;2022-09-09T07:02:34;96472.41;;;16.14;74.78
47366;BME280;33105;47.964;7.982;2022-09-09T07:05:40;96473.50;;;15.99;72.90
47366;BME280;33105;47.964;7.982;2022-09-09T07:08:41;96479.28;;;16.30;73.96
47366;BME280;33105;47.964;7.982;2022-09-09T07:11:48;96486.09;;;16.60;73.36
47366;BME280;33105;47.964;7.982;2022-09-09T07:14:50;96485.53;;;16.77;73.17
47366;BME280;33105;47.964;7.982;2022-09-09T07:17:51;96491.97;;;16.73;72.14
47366;BME280;33105;47.964;7.982;2022-09-09T07:20:54;96475.50;;;16.67;71.69
47366;BME280;33105;47.964;7.982;2022-09-09T07:23:57;96488.56;;;16.89;71.30
47366;BME280;33105;47.964;7.982;2022-09-09T07:26:59;96486.03;;;16.65;70.19
47366;BME280;33105;47.964;7.982;2022-09-09T07:30:01;96487.75;;;16.48;71.23
47366;BME280;33105;47.964;7.982;2022-09-09T07:33:03;96492.41;;;16.33;69.63
47366;BME280;33105;47.964;7.982;2022-09-09T07:36:13;96496.94;;;16.29;71.56
47366;BME280;33105;47.964;7.982;2022-09-09T07:39:15;96486.91;;;16.06;72.39
47366;BME280;33105;47.964;7.982;2022-09-09T07:42:22;96493.25;;;15.88;72.00
47366;BME280;33105;47.964;7.982;2022-09-09T07:45:24;96501.44;;;15.93;71.52
47366;BME280;33105;47.964;7.982;2022-09-09T07:48:25;96501.94;;;16.27;70.06
47366;BME280;33105;47.964;7.982;2022-09-09T07:51:35;96502.66;;;16.47;71.08
47366;BME280;33105;47.964;7.982;2022-09-09T07:54:37;96506.75;;;16.49;70.11
47366;BME280;33105;47.964;7.982;2022-09-09T07:57:40;96503.69;;;16.64;70.65
47366;BME280;33105;47.964;7.982;2022-09-09T08:00:41;96506.22;;;16.88;69.62
47366;BME280;33105;47.964;7.982;2022-09-09T08:03:46;96510.41;;;16.45;69.89
47366;BME280;33105;47.964;7.982;2022-09-09T08:06:56;96517.75;;;16.36;70.67
47366;BME280;33105;47.964;7.982;2022-09-09T08:09:59;96512.16;;;16.54;70.50
47366;BME280;33105;47.964;7.982;2022-09-09T08:13:04;96525.25;;;16.76;70.76
47366;BME280;33105;47.964;7.982;2022-09-09T08:16:12;96526.38;;;16.75;70.19
47366;BME280;33105;47.964;7.982;2022-09-09T08:19:15;96517.16;;;17.07;69.67
47366;BME280;33105;47.964;7.982;2022-09-09T08:22:16;96527.19;;;16.89;69.21
47366;BME280;33105;47.964;7.982;2022-09-09T08:25:17;96542.69;;;16.44;70.93
47366;BME280;33105;47.964;7.982;2022-09-09T08:28:19;96537.91;;;16.04;74.07
47366;BME280;33105;47.964;7.982;2022-09-09T08:31:25;96532.88;;;15.92;70.73
47366;BME280;33105;47.964;7.982;2022-09-09T08:34:29;96531.16;;;15.96;73.39
47366;BME280;33105;47.964;7.982;2022-09-09T08:37:33;96526.31;;;16.20;72.39
47366;BME280;33105;47.964;7.982;2022-09-09T08:40:38;96523.59;;;16.61;72.23
47366;BME280;33105;47.964;7.982;2022-09-09T08:43:46;96517.38;;;16.97;70.32
47366;BME280;33105;47.964;7.982;2022-09-09T08:50:32;96514.81;;;17.00;66.14
47366;BME280;33105;47.964;7.982;2022-09-09T08:53:48;96517.38;;;17.47;68.79
47366;BME280;33105;47.964;7.982;2022-09-09T08:56:50;96514.53;;;17.74;66.24
47366;BME280;33105;47.964;7.982;2022-09-09T08:59:52;96514.34;;;17.71;64.58
47366;BME280;33105;47.964;7.982;2022-09-09T09:06:31;96519.34;;;17.68;65.37
47366;BME280;33105;47.964;7.982;2022-09-09T09:10:02;96513.13;;;17.85;63.41
47366;BME280;33105;47.964;7.982;2022-09-09T09:13:18;96520.69;;;17.93;63.31
47366;BME280;33105;47.964;7.982;2022-09-09T09:16:54;96513.38;;;18.51;64.69
47366;BME280;33105;47.964;7.982;2022-09-09T09:19:57;96501.75;;;18.40;61.66
47366;BME280;33105;47.964;7.982;2022-09-09T09:23:02;96512.13;;;18.34;61.50
47366;BME280;33105;47.964;7.982;2022-09-09T09:26:06;96506.38;;;18.53;60.26
47366;BME280;33105;47.964;7.982;2022-09-09T09:29:16;96511.97;;;18.62;60.68
47366;BME280;33105;47.964;7.982;2022-09-09T09:32:18;96511.25;;;18.79;61.75
47366;BME280;33105;47.964;7.982;2022-09-09T09:35:22;96515.38;;;19.16;59.77
47366;BME280;33105;47.964;7.982;2022-09-09T09:38:26;96504.47;;;19.02;58.33
47366;BME280;33105;47.964;7.982;2022-09-09T09:41:41;96507.38;;;19.06;55.65
47366;BME280;33105;47.964;7.982;2022-09-09T09:44:44;96512.25;;;18.52;59.96
47366;BME280;33105;47.964;7.982;2022-09-09T09:48:04;96508.38;;;17.99;58.38
47366;BME280;33105;47.964;7.982;2022-09-09T09:51:10;96500.19;;;18.56;58.39
47366;BME280;33105;47.964;7.982;2022-09-09T09:54:15;96494.66;;;18.56;57.91
47366;BME280;33105;47.964;7.982;2022-09-09T09:57:26;96500.34;;;18.91;57.98
47366;BME280;33105;47.964;7.982;2022-09-09T10:00:30;96489.25;;;18.82;54.22
47366;BME280;33105;47.964;7.982;2022-09-09T10:03:39;96488.16;;;19.00;55.53
47366;BME280;33105;47.964;7.982;2022-09-09T10:06:42;96497.00;;;19.20;54.91
47366;BME280;33105;47.964;7.982;2022-09-09T10:09:43;96493.16;;;18.81;54.50
47366;BME280;33105;47.964;7.982;2022-09-09T10:12:56;96495.09;;;18.81;54.41
47366;BME280;33105;47.964;7.982;2022-09-09T10:19:34;96488.00;;;18.57;55.28
47366;BME280;33105;47.964;7.982;2022-09-09T10:22:35;96488.97;;;19.10;52.67
47366;BME280;33105;47.964;7.982;2022-09-09T10:32:46;96465.78;;;18.71;55.24
47366;BME280;33105;47.964;7.982;2022-09-09T10:35:59;96471.38;;;18.97;51.97
47366;BME280;33105;47.964;7.982;2022-09-09T10:42:26;96468.38;;;19.50;53.74
47366;BME280;33105;47.964;7.982;2022-09-09T10:45:54;96484.53;;;18.74;59.44
47366;BME280;33105;47.964;7.982;2022-09-09T10:55:41;96509.19;;;17.06;68.07
47366;BME280;33105;47.964;7.982;2022-09-09T10:58:52;96505.53;;;16.83;71.82
47366;BME280;33105;47.964;7.982;2022-09-09T11:08:12;96501.84;;;17.95;69.81
47366;BME280;33105;47.964;7.982;2022-09-09T11:11:29;96506.28;;;17.83;63.89
47366;BME280;33105;47.964;7.982;2022-09-09T11:14:44;96492.19;;;18.46;64.24
47366;BME280;33105;47.964;7.982;2022-09-09T11:17:53;96491.59;;;19.15;65.00
47366;BME280;33105;47.964;7.982;2022-09-09T11:21:00;96488.66;;;19.02;59.85
47366;BME280;33105;47.964;7.982;2022-09-09T11:24:08;96487.25;;;18.65;61.18
47366;BME280;33105;47.964;7.982;2022-09-09T11:27:30;96499.34;;;18.16;60.34
47366;BME280;33105;47.964;7.982;2022-09-09T11:34:04;96501.50;;;18.59;62.18
47366;BME280;33105;47.964;7.982;2022-09-09T11:37:51;96498.50;;;18.38;65.17
47366;BME280;33105;47.964;7.982;2022-09-09T11:40:57;96505.16;;;18.68;62.17
47366;BME280;33105;47.964;7.982;2022-09-09T11:44:12;96502.44;;;18.46;63.14
47366;BME280;33105;47.964;7.982;2022-09-09T11:47:26;96521.25;;;18.04;64.78
47366;BME280;33105;47.964;7.982;2022-09-09T11:50:36;96521.03;;;18.23;66.14
47366;BME280;33105;47.964;7.982;2022-09-09T11:54:01;96508.22;;;18.35;61.93
47366;BME280;33105;47.964;7.982;2022-09-09T11:57:03;96520.47;;;18.12;61.80
47366;BME280;33105;47.964;7.982;2022-09-09T12:00:06;96508.16;;;18.49;63.09
47366;BME280;33105;47.964;7.982;2022-09-09T12:03:41;96506.78;;;19.43;63.21
47366;BME280;33105;47.964;7.982;2022-09-09T12:07:05;96500.50;;;18.77;58.79
47366;BME280;33105;47.964;7.982;2022-09-09T12:13:56;96510.25;;;18.75;58.60
47366;BME280;33105;47.964;7.982;2022-09-09T12:17:09;96505.63;;;18.61;58.03
47366;BME280;33105;47.964;7.982;2022-09-09T12:20:20;96506.16;;;18.41;57.10
47366;BME280;33105;47.964;7.982;2022-09-09T12:29:55;96499.75;;;18.32;56.55
47366;BME280;33105;47.964;7.982;2022-09-09T12:33:11;96490.16;;;18.29;57.62
47366;BME280;33105;47.964;7.982;2022-09-09T12:36:23;96493.06;;;19.12;58.70
47366;BME280;33105;47.964;7.982;2022-09-09T12:39:35;96491.84;;;19.70;56.15
47366;BME280;33105;47.964;7.982;2022-09-09T12:42:40;96495.44;;;19.70;57.71
47366;BME280;33105;47.964;7.982;2022-09-09T12:45:41;96488.56;;;19.94;55.28
47366;BME280;33105;47.964;7.982;2022-09-09T12:48:44;96479.81;;;20.30;56.65
47366;BME280;33105;47.964;7.982;2022-09-09T12:51:46;96477.09;;;20.13;51.14
47366;BME280;33105;47.964;7.982;2022-09-09T12:54:48;96486.63;;;19.60;52.94
47366;BME280;33105;47.964;7.982;2022-09-09T12:57:52;96476.50;;;19.47;55.33
47366;BME280;33105;47.964;7.982;2022-09-09T13:00:55;96476.53;;;18.81;58.37
47366;BME280;33105;47.964;7.982;2022-09-09T13:03:59;96477.59;;;19.02;59.90
47366;BME280;33105;47.964;7.982;2022-09-09T13:07:07;96478.66;;;18.84;56.42
47366;BME280;33105;47.964;7.982;2022-09-09T13:10:12;96493.97;;;18.82;57.83
47366;BME280;33105;47.964;7.982;2022-09-09T13:13:15;96482.56;;;18.44;56.38
47366;BME280;33105;47.964;7.982;2022-09-09T13:16:36;96481.69;;;18.26;56.56
47366;BME280;33105;47.964;7.982;2022-09-09T13:19:37;96475.22;;;18.39;56.12
47366;BME280;33105;47.964;7.982;2022-09-09T13:22:39;96468.88;;;18.39;58.59
47366;BME280;33105;47.964;7.982;2022-09-09T13:25:53;96472.72;;;18.20;58.15
47366;BME280;33105;47.964;7.982;2022-09-09T13:29:08;96484.38;;;17.86;58.15
47366;BME280;33105;47.964;7.982;2022-09-09T13:32:17;96511.75;;;17.38;64.61
47366;BME280;33105;47.964;7.982;2022-09-09T13:35:23;96513.50;;;16.57;68.62
47366;BME280;33105;47.964;7.982;2022-09-09T13:38:27;96524.38;;;16.34;70.08
47366;BME280;33105;47.964;7.982;2022-09-09T13:41:35;96531.53;;;15.89;67.67
47366;BME280;33105;47.964;7.982;2022-09-09T13:44:38;96523.66;;;15.83;68.60
47366;BME280;33105;47.964;7.982;2022-09-09T13:47:40;96521.47;;;16.12;75.30
47366;BME280;33105;47.964;7.982;2022-09-09T13:50:54;96518.41;;;16.87;74.03
47366;BME280;33105;47.964;7.982;2022-09-09T13:53:55;96517.13;;;17.57;71.57
47366;BME280;33105;47.964;7.982;2022-09-09T13:56:56;96510.22;;;18.13;69.34
47366;BME280;33105;47.964;7.982;2022-09-09T13:59:57;96500.13;;;18.39;65.25
47366;BME280;33105;47.964;7.982;2022-09-09T14:02:58;96492.59;;;18.62;62.64
47366;BME280;33105;47.964;7.982;2022-09-09T14:06:02;96487.22;;;19.05;66.74
47366;BME280;33105;47.964;7.982;2022-09-09T14:09:07;96485.22;;;18.97;59.49
47366;BME280;33105;47.964;7.982;2022-09-09T14:12:14;96482.19;;;19.42;59.89
47366;BME280;33105;47.964;7.982;2022-09-09T14:15:16;96489.53;;;19.46;61.22
47366;BME280;33105;47.964;7.982;2022-09-09T14:18:17;96482.00;;;19.03;56.45
47366;BME280;33105;47.964;7.982;2022-09-09T14:21:19;96485.75;;;19.33;60.99
47366;BME280;33105;47.964;7.982;2022-09-09T14:24:21;96481.22;;;19.46;59.00
47366;BME280;33105;47.964;7.982;2022-09-09T14:27:22;96484.25;;;19.10;61.80
47366;BME280;33105;47.964;7.982;2022-09-09T14:30:23;96483.97;;;19.29;60.39
47366;BME280;33105;47.964;7.982;2022-09-09T14:33:24;96480.13;;;18.73;57.58
47366;BME280;33105;47.964;7.982;2022-09-09T14:36:26;96492.38;;;18.50;58.17
47366;BME280;33105;47.964;7.982;2022-09-09T14:39:27;96496.63;;;18.56;59.38
47366;BME280;33105;47.964;7.982;2022-09-09T14:42:28;96492.19;;;18.15;56.42
47366;BME280;33105;47.964;7.982;2022-09-09T14:45:31;96473.84;;;18.59;60.30
47366;BME280;33105;47.964;7.982;2022-09-09T14:48:32;96484.53;;;18.74;61.07
47366;BME280;33105;47.964;7.982;2022-09-09T14:51:34;96482.06;;;18.81;58.62
47366;BME280;33105;47.964;7.982;2022-09-09T14:54:36;96472.22;;;19.32;60.82
47366;BME280;33105;47.964;7.982;2022-09-09T14:57:37;96470.50;;;19.53;60.46
47366;BME280;33105;47.964;7.982;2022-09-09T15:00:39;96471.22;;;19.11;57.66
47366;BME280;33105;47.964;7.982;2022-09-09T15:03:48;96467.19;;;19.34;57.81
47366;BME280;33105;47.964;7.982;2022-09-09T15:06:49;96473.41;;;19.48;60.49
47366;BME280;33105;47.964;7.982;2022-09-09T15:09:53;96467.44;;;18.89;58.73
47366;BME280;33105;47.964;7.982;2022-09-09T15:12:55;96462.16;;;18.62;59.72
47366;BME280;33105;47.964;7.982;2022-09-09T15:16:05;96469.22;;;18.77;59.38
47366;BME280;33105;47.964;7.982;2022-09-09T15:19:07;96466.66;;;18.97;59.73
47366;BME280;33105;47.964;7.982;2022-09-09T15:22:08;96461.41;;;18.87;57.09
47366;BME280;33105;47.964;7.982;2022-09-09T15:25:10;96472.19;;;18.58;58.16
47366;BME280;33105;47.964;7.982;2022-09-09T15:28:11;96476.59;;;18.59;59.41
47366;BME280;33105;47.964;7.982;2022-09-09T15:31:18;96480.75;;;18.08;59.39
47366;BME280;33105;47.964;7.982;2022-09-09T15:34:21;96477.09;;;17.90;58.66
47366;BME280;33105;47.964;7.982;2022-09-09T15:37:22;96481.03;;;17.98;61.33
47366;BME280;33105;47.964;7.982;2022-09-09T15:40:23;96476.91;;;17.64;61.76
47366;BME280;33105;47.964;7.982;2022-09-09T15:43:24;96488.81;;;17.51;61.23
47366;BME280;33105;47.964;7.982;2022-09-09T15:49:33;96483.44;;;17.32;63.33
47366;BME280;33105;47.964;7.982;2022-09-09T15:52:34;96482.84;;;17.58;63.43
47366;BME280;33105;47.964;7.982;2022-09-09T15:55:36;96484.66;;;17.76;61.19
47366;BME280;33105;47.964;7.982;2022-09-09T15:58:37;96487.72;;;17.61;61.42
47366;BME280;33105;47.964;7.982;2022-09-09T16:01:38;96484.63;;;17.54;61.90
47366;BME280;33105;47.964;7.982;2022-09-09T16:04:44;96489.81;;;17.55;64.09
47366;BME280;33105;47.964;7.982;2022-09-09T16:07:45;96484.78;;;17.57;64.62
47366;BME280;33105;47.964;7.982;2022-09-09T16:10:48;96483.81;;;17.53;64.23
47366;BME280;33105;47.964;7.982;2022-09-09T16:13:51;96477.59;;;17.34;63.28
47366;BME280;33105;47.964;7.982;2022-09-09T16:16:53;96485.06;;;16.97;63.33
47366;BME280;33105;47.964;7.982;2022-09-09T16:19:54;96481.41;;;17.02;64.08
47366;BME280;33105;47.964;7.982;2022-09-09T16:22:56;96484.00;;;17.21;66.97
47366;BME280;33105;47.964;7.982;2022-09-09T16:25:59;96490.22;;;17.26;69.21
47366;BME280;33105;47.964;7.982;2022-09-09T16:29:01;96501.78;;;17.15;68.76
47366;BME280;33105;47.964;7.982;2022-09-09T16:32:03;96521.47;;;16.86;68.36
47366;BME280;33105;47.964;7.982;2022-09-09T16:35:05;96542.84;;;16.34;72.75
47366;BME280;33105;47.964;7.982;2022-09-09T16:38:06;96557.50;;;16.02;75.18
47366;BME280;33105;47.964;7.982;2022-09-09T16:41:12;96553.97;;;15.83;77.28
47366;BME280;33105;47.964;7.982;2022-09-09T16:44:16;96560.59;;;15.82;80.64
47366;BME280;33105;47.964;7.982;2022-09-09T16:47:19;96573.38;;;14.92;79.60
47366;BME280;33105;47.964;7.982;2022-09-09T16:50:20;96576.41;;;15.15;81.79
47366;BME280;33105;47.964;7.982;2022-09-09T16:53:21;96571.28;;;15.46;82.29
47366;BME280;33105;47.964;7.982;2022-09-09T16:56:25;96581.91;;;15.15;83.57
47366;BME280;33105;47.964;7.982;2022-09-09T16:59:26;96575.84;;;14.94;83.38
47366;BME280;33105;47.964;7.982;2022-09-09T17:02:27;96579.31;;;14.81;83.98
47366;BME280;33105;47.964;7.982;2022-09-09T17:05:29;96570.00;;;15.01;82.88
47366;BME280;33105;47.964;7.982;2022-09-09T17:08:31;96571.34;;;15.22;81.66
47366;BME280;33105;47.964;7.982;2022-09-09T17:11:33;96561.34;;;15.31;82.53
47366;BME280;33105;47.964;7.982;2022-09-09T17:14:34;96562.44;;;15.30;82.31
47366;BME280;33105;47.964;7.982;2022-09-09T17:17:36;96569.66;;;15.26;82.97
47366;BME280;33105;47.964;7.982;2022-09-09T17:20:38;96576.03;;;15.21;83.54
47366;BME280;33105;47.964;7.982;2022-09-09T17:23:41;96573.06;;;15.18;83.52
47366;BME280;33105;47.964;7.982;2022-09-09T17:26:42;96573.34;;;14.97;83.48
47366;BME280;33105;47.964;7.982;2022-09-09T17:29:44;96575.50;;;15.01;83.88
47366;BME280;33105;47.964;7.982;2022-09-09T17:32:45;96574.22;;;14.69;84.70
47366;BME280;33105;47.964;7.982;2022-09-09T17:35:47;96580.47;;;14.51;85.70
47366;BME280;33105;47.964;7.982;2022-09-09T17:38:50;96582.34;;;14.26;86.85
47366;BME280;33105;47.964;7.982;2022-09-09T17:41:52;96587.94;;;14.16;86.44
47366;BME280;33105;47.964;7.982;2022-09-09T17:44:53;96590.25;;;14.04;87.15